createdAt,value
2023-12-04T00:00:13.286Z,25.49
2023-12-04T00:01:13.675Z,25.49
2023-12-04T00:02:13.263Z,25.49
2023-12-04T00:03:13.298Z,25.50
2023-12-04T00:04:13.355Z,25.50
2023-12-04T00:05:13.308Z,25.50
2023-12-04T00:57:40.015Z,25.47
2023-12-04T00:58:12.860Z,25.44
2023-12-04T00:59:12.791Z,25.44
2023-12-04T01:00:12.750Z,25.44
2023-12-04T01:01:12.738Z,25.46
2023-12-04T01:02:12.724Z,25.44
2023-12-04T01:03:12.737Z,25.44
2023-12-04T01:04:12.712Z,25.44
2023-12-04T01:05:12.699Z,25.46
2023-12-04T01:06:12.698Z,25.47
2023-12-04T01:07:12.696Z,25.46
2023-12-04T01:08:12.683Z,25.47
2023-12-04T01:09:12.673Z,25.49
2023-12-04T01:10:12.649Z,25.46
2023-12-04T01:11:12.645Z,25.49
2023-12-04T01:12:12.638Z,25.46
2023-12-04T01:13:12.657Z,25.47
2023-12-04T01:14:12.616Z,25.46
2023-12-04T01:15:12.600Z,25.46
2023-12-04T01:16:12.591Z,25.49
2023-12-04T01:17:12.582Z,25.51
2023-12-04T01:18:12.708Z,25.50
2023-12-04T01:19:12.636Z,25.47
2023-12-04T01:20:12.579Z,25.46
2023-12-04T01:21:12.553Z,25.47
2023-12-04T01:22:12.539Z,25.49
2023-12-04T01:23:12.526Z,25.44
2023-12-04T01:24:12.564Z,25.44
2023-12-04T01:25:12.520Z,25.44
2023-12-04T01:26:12.510Z,25.46
2023-12-04T01:27:12.500Z,25.44
2023-12-04T01:28:12.488Z,25.44
2023-12-04T01:29:12.545Z,25.44
2023-12-04T01:30:12.499Z,25.44
2023-12-04T01:31:12.492Z,25.42
2023-12-04T01:32:12.488Z,25.44
2023-12-04T01:33:12.555Z,25.40
2023-12-04T01:34:12.519Z,25.43
2023-12-04T01:35:12.492Z,25.46
2023-12-04T01:36:12.501Z,25.44
2023-12-04T01:37:12.564Z,25.46
2023-12-04T01:38:12.559Z,25.44
2023-12-04T01:39:12.556Z,25.44
2023-12-04T01:40:12.605Z,25.46
2023-12-04T01:41:12.564Z,25.47
2023-12-04T01:42:12.550Z,25.46
2023-12-04T01:43:12.577Z,25.46
2023-12-04T01:44:12.553Z,25.43
2023-12-04T01:45:12.588Z,25.46
2023-12-04T01:46:12.553Z,25.44
2023-12-04T01:47:12.549Z,25.47
2023-12-04T01:48:12.646Z,25.47
2023-12-04T01:49:12.679Z,25.47
2023-12-04T01:50:12.550Z,25.47
2023-12-04T01:51:12.552Z,25.44
2023-12-04T01:52:12.605Z,25.46
2023-12-04T01:53:12.558Z,25.46
2023-12-04T01:54:12.564Z,25.46
2023-12-04T01:55:12.547Z,25.47
2023-12-04T01:56:12.558Z,25.49
2023-12-04T01:57:12.545Z,25.49
2023-12-04T01:58:12.553Z,25.49
2023-12-04T01:59:12.578Z,25.47
2023-12-04T02:00:12.701Z,25.46
2023-12-04T02:01:12.518Z,25.47
2023-12-04T02:02:12.489Z,25.44
2023-12-04T02:03:12.554Z,25.44
2023-12-04T02:04:12.564Z,25.46
2023-12-04T02:05:12.499Z,25.47
2023-12-04T02:06:12.500Z,25.46
2023-12-04T02:07:12.176Z,25.42
2023-12-04T02:08:12.122Z,25.43
2023-12-04T02:09:12.115Z,25.40
2023-12-04T02:10:12.154Z,25.39
2023-12-04T02:11:12.085Z,25.43
2023-12-04T02:12:12.085Z,25.43
2023-12-04T02:13:12.084Z,25.43
2023-12-04T02:14:12.064Z,25.46
2023-12-04T02:15:12.048Z,25.43
2023-12-04T02:16:12.043Z,25.42
2023-12-04T02:17:12.063Z,25.44
2023-12-04T02:18:12.097Z,25.42
2023-12-04T02:19:12.088Z,25.42
2023-12-04T02:20:12.013Z,25.44
2023-12-04T02:21:11.997Z,25.43
2023-12-04T02:22:11.984Z,25.43
2023-12-04T02:23:11.981Z,25.44
2023-12-04T02:24:11.970Z,25.44
2023-12-04T02:25:21.543Z,25.46
2023-12-04T02:26:11.963Z,25.47
2023-12-04T02:27:11.943Z,25.47
2023-12-04T02:28:11.966Z,25.47
2023-12-04T02:29:11.959Z,25.47
2023-12-04T02:30:11.914Z,25.44
2023-12-04T02:31:11.932Z,25.44
2023-12-04T02:32:11.891Z,25.46
2023-12-04T02:33:11.970Z,25.44
2023-12-04T02:34:12.801Z,25.46
2023-12-04T02:35:11.875Z,25.44
2023-12-04T02:36:11.868Z,25.46
2023-12-04T02:37:11.924Z,25.46
2023-12-04T02:38:11.846Z,25.44
2023-12-04T02:39:11.831Z,25.43
2023-12-04T02:40:11.877Z,25.46
2023-12-04T02:41:11.811Z,25.46
2023-12-04T02:42:11.816Z,25.44
2023-12-04T02:43:11.824Z,25.46
2023-12-04T02:44:11.786Z,25.43
2023-12-04T02:45:11.783Z,25.47
2023-12-04T02:46:11.791Z,25.44
2023-12-04T02:47:11.754Z,25.49
2023-12-04T02:48:11.913Z,25.47
2023-12-04T02:49:11.785Z,25.46
2023-12-04T02:50:11.730Z,25.49
2023-12-04T02:51:11.729Z,25.46
2023-12-04T02:52:11.739Z,25.46
2023-12-04T02:53:11.698Z,25.43
2023-12-04T02:54:11.692Z,25.44
2023-12-04T02:55:11.733Z,25.46
2023-12-04T02:56:11.677Z,25.44
2023-12-04T02:57:11.700Z,25.43
2023-12-04T02:58:11.736Z,25.43
2023-12-04T02:59:11.654Z,25.43
2023-12-04T03:00:11.639Z,25.42
2023-12-04T03:01:11.659Z,25.46
2023-12-04T03:02:11.638Z,25.43
2023-12-04T03:03:11.638Z,25.44
2023-12-04T03:04:11.623Z,25.44
2023-12-04T03:05:11.621Z,25.44
2023-12-04T03:06:11.607Z,25.46
2023-12-04T03:07:11.609Z,25.47
2023-12-04T03:08:11.565Z,25.46
2023-12-04T03:09:11.569Z,25.44
2023-12-04T03:10:11.563Z,25.46
2023-12-04T03:11:11.533Z,25.46
2023-12-04T03:12:11.525Z,25.46
2023-12-04T03:13:11.574Z,25.46
2023-12-04T03:14:11.503Z,25.47
2023-12-04T03:15:11.499Z,25.46
2023-12-04T03:16:11.489Z,25.47
2023-12-04T03:17:11.477Z,25.49
2023-12-04T03:18:12.903Z,25.49
2023-12-04T03:19:11.526Z,25.47
2023-12-04T03:20:11.456Z,25.47
2023-12-04T03:21:11.471Z,25.47
2023-12-04T03:22:11.504Z,25.49
2023-12-04T03:23:11.418Z,25.44
2023-12-04T03:24:11.410Z,25.47
2023-12-04T03:25:11.555Z,25.49
2023-12-04T03:26:11.492Z,25.46
2023-12-04T03:27:11.405Z,25.46
2023-12-04T03:28:11.476Z,25.49
2023-12-04T03:29:11.360Z,25.46
2023-12-04T03:30:11.367Z,25.44
2023-12-04T03:31:11.444Z,25.46
2023-12-04T03:32:11.347Z,25.46
2023-12-04T03:33:11.396Z,25.46
2023-12-04T03:34:11.365Z,25.46
2023-12-04T03:35:11.315Z,25.44
2023-12-04T03:36:11.308Z,25.46
2023-12-04T03:37:11.352Z,25.44
2023-12-04T03:38:11.280Z,25.43
2023-12-04T03:39:11.291Z,25.43
2023-12-04T03:40:11.309Z,25.47
2023-12-04T03:41:11.255Z,25.47
2023-12-04T03:42:11.249Z,25.46
2023-12-04T03:43:11.320Z,25.46
2023-12-04T03:44:11.267Z,25.46
2023-12-04T03:45:11.222Z,25.44
2023-12-04T03:46:11.224Z,25.47
2023-12-04T03:47:11.203Z,25.47
2023-12-04T03:48:11.252Z,25.46
2023-12-04T03:49:11.226Z,25.49
2023-12-04T03:50:11.182Z,25.44
2023-12-04T03:51:11.164Z,25.47
2023-12-04T03:52:11.186Z,25.44
2023-12-04T03:53:11.163Z,25.46
2023-12-04T03:54:11.135Z,25.46
2023-12-04T03:55:11.199Z,25.46
2023-12-04T03:56:11.118Z,25.46
2023-12-04T03:57:11.110Z,25.44
2023-12-04T03:58:11.215Z,25.44
2023-12-04T03:59:11.089Z,25.44
2023-12-04T04:00:11.075Z,25.43
2023-12-04T04:01:11.091Z,25.44
2023-12-04T04:02:11.058Z,25.44
2023-12-04T04:03:11.117Z,25.44
2023-12-04T04:04:11.081Z,25.46
2023-12-04T04:05:11.030Z,25.46
2023-12-04T04:06:11.022Z,25.46
2023-12-04T04:07:11.109Z,25.46
2023-12-04T04:08:10.996Z,25.43
2023-12-04T04:09:11.066Z,25.44
2023-12-04T04:10:11.008Z,25.46
2023-12-04T04:11:10.975Z,25.43
2023-12-04T04:12:10.970Z,25.44
2023-12-04T04:13:11.050Z,25.43
2023-12-04T04:14:10.945Z,25.44
2023-12-04T04:15:10.935Z,25.42
2023-12-04T04:16:10.985Z,25.42
2023-12-04T04:17:10.923Z,25.40
2023-12-04T04:18:11.031Z,25.43
2023-12-04T04:19:12.727Z,25.43
2023-12-04T04:20:10.905Z,25.42
2023-12-04T04:21:10.878Z,25.43
2023-12-04T04:22:10.961Z,25.43
2023-12-04T04:23:10.865Z,25.43
2023-12-04T04:24:10.870Z,25.44
2023-12-04T04:25:10.914Z,25.44
2023-12-04T04:26:10.847Z,25.46
2023-12-04T04:27:10.860Z,25.43
2023-12-04T04:28:10.868Z,25.44
2023-12-04T04:29:10.813Z,25.44
2023-12-04T04:30:10.793Z,25.40
2023-12-04T04:31:10.831Z,25.43
2023-12-04T04:32:12.985Z,25.42
2023-12-04T04:33:10.784Z,25.42
2023-12-04T04:34:10.839Z,25.42
2023-12-04T04:35:10.825Z,25.43
2023-12-04T04:36:10.751Z,25.43
2023-12-04T04:37:10.795Z,25.42
2023-12-04T04:38:10.723Z,25.43
2023-12-04T04:39:10.711Z,25.43
2023-12-04T04:40:10.754Z,25.46
2023-12-04T04:41:10.741Z,25.43
2023-12-04T04:42:10.751Z,25.43
2023-12-04T04:43:10.730Z,25.42
2023-12-04T04:44:10.664Z,25.44
2023-12-04T04:45:10.659Z,25.43
2023-12-04T04:46:10.718Z,25.43
2023-12-04T04:47:10.633Z,25.44
2023-12-04T04:48:10.662Z,25.44
2023-12-04T04:49:10.689Z,25.43
2023-12-04T04:50:10.606Z,25.43
2023-12-04T04:51:10.605Z,25.43
2023-12-04T04:52:10.631Z,25.44
2023-12-04T04:53:10.582Z,25.43
2023-12-04T04:54:10.568Z,25.44
2023-12-04T04:55:10.649Z,25.44
2023-12-04T04:56:10.561Z,25.44
2023-12-04T04:57:10.568Z,25.43
2023-12-04T04:58:10.597Z,25.44
2023-12-04T04:59:10.522Z,25.43
2023-12-04T05:00:10.514Z,25.42
2023-12-04T05:01:10.531Z,25.42
2023-12-04T05:02:10.524Z,25.43
2023-12-04T05:03:10.486Z,25.42
2023-12-04T05:04:10.557Z,25.42
2023-12-04T05:05:10.520Z,25.44
2023-12-04T05:06:10.500Z,25.43
2023-12-04T05:07:10.496Z,25.44
2023-12-04T05:08:10.436Z,25.44
2023-12-04T05:09:10.428Z,25.43
2023-12-04T05:10:10.474Z,25.43
2023-12-04T05:11:10.413Z,25.43
2023-12-04T05:12:10.400Z,25.40
2023-12-04T05:13:10.630Z,25.40
2023-12-04T05:14:10.385Z,25.39
2023-12-04T05:15:10.405Z,25.40
2023-12-04T05:16:10.494Z,25.40
2023-12-04T05:17:10.357Z,25.40
2023-12-04T05:18:10.394Z,25.40
2023-12-04T05:19:10.399Z,25.42
2023-12-04T05:20:10.328Z,25.42
2023-12-04T05:21:10.322Z,25.43
2023-12-04T05:22:10.363Z,25.42
2023-12-04T05:23:10.300Z,25.42
2023-12-04T05:24:10.288Z,25.44
2023-12-04T05:25:10.304Z,25.43
2023-12-04T05:26:10.316Z,25.43
2023-12-04T05:27:10.271Z,25.42
2023-12-04T05:28:10.295Z,25.42
2023-12-04T05:29:10.261Z,25.42
2023-12-04T05:30:10.229Z,25.43
2023-12-04T05:31:10.275Z,25.42
2023-12-04T05:32:10.218Z,25.42
2023-12-04T05:33:10.276Z,25.43
2023-12-04T05:34:10.301Z,25.42
2023-12-04T05:35:10.187Z,25.43
2023-12-04T05:36:10.181Z,25.46
2023-12-04T05:37:10.189Z,25.43
2023-12-04T05:38:10.158Z,25.42
2023-12-04T05:39:10.156Z,25.43
2023-12-04T05:40:10.233Z,25.44
2023-12-04T05:41:10.135Z,25.43
2023-12-04T05:42:10.116Z,25.42
2023-12-04T05:43:10.212Z,25.43
2023-12-04T05:44:10.100Z,25.42
2023-12-04T05:45:10.140Z,25.43
2023-12-04T05:46:10.124Z,25.39
2023-12-04T05:47:10.077Z,25.42
2023-12-04T05:48:10.108Z,25.42
2023-12-04T05:49:10.098Z,25.42
2023-12-04T05:50:10.048Z,25.43
2023-12-04T05:51:10.031Z,25.42
2023-12-04T05:52:10.100Z,25.44
2023-12-04T05:53:10.012Z,25.43
2023-12-04T05:54:10.014Z,25.40
2023-12-04T05:55:10.145Z,25.40
2023-12-04T05:56:09.996Z,25.40
2023-12-04T05:57:09.982Z,25.39
2023-12-04T05:58:10.025Z,25.39
2023-12-04T05:59:09.970Z,25.39
2023-12-04T06:00:09.957Z,25.39
2023-12-04T06:01:09.981Z,25.39
2023-12-04T06:02:10.020Z,25.40
2023-12-04T06:03:09.992Z,25.42
2023-12-04T06:04:09.946Z,25.40
2023-12-04T06:05:09.935Z,25.40
2023-12-04T06:06:09.933Z,25.42
2023-12-04T06:07:09.933Z,25.40
2023-12-04T06:08:09.885Z,25.42
2023-12-04T06:09:09.885Z,25.42
2023-12-04T06:10:09.949Z,25.42
2023-12-04T06:11:09.865Z,25.43
2023-12-04T06:12:09.846Z,25.40
2023-12-04T06:13:09.910Z,25.42
2023-12-04T06:14:09.843Z,25.42
2023-12-04T06:15:09.826Z,25.40
2023-12-04T06:16:09.870Z,25.43
2023-12-04T06:17:09.852Z,25.40
2023-12-04T06:18:09.901Z,25.40
2023-12-04T06:19:09.878Z,25.42
2023-12-04T06:20:09.784Z,25.39
2023-12-04T06:21:09.774Z,25.42
2023-12-04T06:22:09.774Z,25.39
2023-12-04T06:23:09.766Z,25.40
2023-12-04T06:24:09.826Z,25.39
2023-12-04T06:25:09.813Z,25.37
2023-12-04T06:26:09.728Z,25.37
2023-12-04T06:27:09.848Z,25.34
2023-12-04T06:28:09.735Z,25.32
2023-12-04T06:29:09.705Z,25.23
2023-12-04T06:30:09.688Z,25.15
2023-12-04T06:31:09.778Z,25.08
2023-12-04T06:32:09.678Z,24.95
2023-12-04T06:33:09.941Z,24.88
2023-12-04T06:34:09.712Z,24.79
2023-12-04T06:35:09.656Z,24.70
2023-12-04T06:36:09.649Z,24.60
2023-12-04T06:37:09.668Z,24.51
2023-12-04T06:38:09.666Z,24.50
2023-12-04T06:39:09.838Z,24.46
2023-12-04T06:40:09.690Z,24.43
2023-12-04T06:41:09.601Z,24.36
2023-12-04T06:42:09.606Z,24.27
2023-12-04T06:43:09.621Z,24.23
2023-12-04T06:44:09.584Z,24.23
2023-12-04T06:45:09.565Z,24.27
2023-12-04T06:46:09.896Z,24.27
2023-12-04T06:47:09.849Z,24.30
2023-12-04T06:48:09.579Z,24.31
2023-12-04T06:49:09.625Z,24.27
2023-12-04T06:50:09.509Z,24.26
2023-12-04T06:51:09.533Z,24.23
2023-12-04T06:52:09.874Z,24.26
2023-12-04T06:53:09.482Z,24.20
2023-12-04T06:54:09.897Z,24.19
2023-12-04T06:55:09.477Z,24.19
2023-12-04T06:56:09.466Z,24.22
2023-12-04T06:57:09.442Z,24.27
2023-12-04T06:58:09.463Z,24.31
2023-12-04T06:59:09.871Z,24.36
2023-12-04T07:00:20.921Z,24.40
2023-12-04T07:01:17.285Z,24.43
2023-12-04T07:02:09.473Z,24.43
2023-12-04T07:03:09.416Z,24.43
2023-12-04T07:04:10.012Z,24.44
2023-12-04T07:05:09.403Z,24.44
2023-12-04T07:06:09.393Z,24.47
2023-12-04T07:07:09.394Z,24.46
2023-12-04T07:08:09.371Z,24.46
2023-12-04T07:09:09.358Z,24.48
2023-12-04T07:10:09.361Z,24.46
2023-12-04T07:11:09.385Z,24.47
2023-12-04T07:12:09.357Z,24.48
2023-12-04T07:13:09.362Z,24.51
2023-12-04T07:14:09.291Z,24.50
2023-12-04T07:15:09.282Z,24.54
2023-12-04T07:16:09.374Z,24.57
2023-12-04T07:17:09.294Z,24.54
2023-12-04T07:18:09.510Z,24.56
2023-12-04T07:19:09.337Z,24.57
2023-12-04T07:20:09.300Z,24.56
2023-12-04T07:21:09.281Z,24.56
2023-12-04T07:22:09.421Z,24.54
2023-12-04T07:23:09.253Z,24.53
2023-12-04T07:24:09.240Z,24.48
2023-12-04T07:25:09.224Z,24.48
2023-12-04T07:26:09.224Z,24.48
2023-12-04T07:27:09.214Z,24.47
2023-12-04T07:28:09.427Z,24.43
2023-12-04T07:29:10.193Z,24.44
2023-12-04T07:30:09.185Z,24.40
2023-12-04T07:31:09.168Z,24.39
2023-12-04T07:32:09.134Z,24.36
2023-12-04T07:33:10.637Z,24.33
2023-12-04T07:34:09.450Z,24.37
2023-12-04T07:35:09.288Z,24.31
2023-12-04T07:36:09.273Z,24.34
2023-12-04T07:37:09.337Z,24.34
2023-12-04T07:38:09.264Z,24.31
2023-12-04T07:39:09.863Z,24.33
2023-12-04T07:40:09.285Z,24.34
2023-12-04T07:41:09.220Z,24.34
2023-12-04T07:42:12.919Z,24.34
2023-12-04T07:43:09.246Z,24.34
2023-12-04T07:44:09.352Z,24.33
2023-12-04T07:45:09.254Z,24.34
2023-12-04T07:46:09.297Z,24.31
2023-12-04T07:47:09.203Z,24.34
2023-12-04T07:48:09.229Z,24.33
2023-12-04T07:49:09.527Z,24.36
2023-12-04T07:50:09.411Z,24.34
2023-12-04T07:51:09.182Z,24.36
2023-12-04T07:52:10.245Z,24.37
2023-12-04T07:53:09.181Z,24.39
2023-12-04T07:54:09.403Z,24.41
2023-12-04T07:55:09.152Z,24.41
2023-12-04T07:56:09.147Z,24.44
2023-12-04T07:57:09.137Z,24.47
2023-12-04T07:58:09.176Z,24.48
2023-12-04T07:59:09.074Z,24.53
2023-12-04T08:00:09.104Z,24.54
2023-12-04T08:01:09.164Z,24.54
2023-12-04T08:02:09.063Z,24.58
2023-12-04T08:03:09.138Z,24.58
2023-12-04T08:04:09.556Z,24.64
2023-12-04T08:05:10.089Z,24.63
2023-12-04T08:06:09.106Z,24.66
2023-12-04T08:07:09.861Z,24.67
2023-12-04T08:08:09.036Z,24.72
2023-12-04T08:09:09.491Z,24.71
2023-12-04T08:10:09.009Z,24.74
2023-12-04T08:11:09.011Z,24.75
2023-12-04T08:12:09.007Z,24.74
2023-12-04T08:13:09.006Z,24.75
2023-12-04T08:14:08.956Z,24.77
2023-12-04T08:15:09.449Z,24.79
2023-12-04T08:16:08.976Z,24.75
2023-12-04T08:17:09.391Z,24.77
2023-12-04T08:18:08.979Z,24.75
2023-12-04T08:19:09.972Z,24.75
2023-12-04T08:20:09.637Z,24.77
2023-12-04T08:21:08.950Z,24.79
2023-12-04T08:22:08.897Z,24.78
2023-12-04T08:23:10.062Z,24.79
2023-12-04T08:24:08.842Z,24.81
2023-12-04T08:25:09.288Z,24.79
2023-12-04T08:26:08.850Z,24.81
2023-12-04T08:27:09.589Z,24.84
2023-12-04T08:28:09.177Z,24.81
2023-12-04T08:29:08.872Z,24.84
2023-12-04T08:30:08.820Z,24.81
2023-12-04T08:31:08.854Z,24.82
2023-12-04T08:32:12.230Z,24.85
2023-12-04T08:33:08.867Z,24.85
2023-12-04T08:34:08.790Z,24.78
2023-12-04T08:35:08.894Z,24.82
2023-12-04T08:36:09.898Z,24.81
2023-12-04T08:37:08.817Z,24.84
2023-12-04T08:38:08.891Z,24.86
2023-12-04T08:39:08.718Z,24.86
2023-12-04T08:40:08.903Z,24.88
2023-12-04T08:41:08.738Z,24.92
2023-12-04T08:42:12.397Z,24.94
2023-12-04T08:43:08.755Z,24.92
2023-12-04T08:44:08.730Z,24.96
2023-12-04T08:45:08.994Z,24.96
2023-12-04T08:46:08.812Z,24.99
2023-12-04T08:47:08.661Z,25.06
2023-12-04T08:48:08.716Z,25.12
2023-12-04T08:49:08.736Z,25.18
2023-12-04T08:50:09.336Z,25.05
2023-12-04T08:51:08.647Z,25.13
2023-12-04T08:52:08.736Z,25.19
2023-12-04T08:53:08.612Z,25.18
2023-12-04T08:55:07.993Z,25.25
2023-12-04T08:56:11.256Z,25.25
2023-12-04T08:57:08.591Z,25.30
2023-12-04T08:58:12.207Z,25.32
2023-12-04T08:59:08.583Z,25.32
2023-12-04T09:00:08.592Z,25.33
2023-12-04T09:01:08.589Z,25.34
2023-12-04T09:02:09.942Z,25.37
2023-12-04T09:03:10.834Z,25.37
2023-12-04T09:04:08.616Z,25.39
2023-12-04T09:05:08.601Z,25.39
2023-12-04T09:06:08.669Z,25.39
2023-12-04T09:09:11.045Z,25.40
2023-12-04T09:10:13.939Z,25.39
2023-12-04T09:11:18.625Z,25.40
2023-12-04T09:12:08.435Z,25.42
2023-12-04T09:13:08.444Z,25.42
2023-12-04T09:14:08.440Z,25.40
2023-12-04T09:15:09.652Z,25.37
2023-12-04T09:16:08.986Z,25.43
2023-12-04T09:17:08.390Z,25.43
2023-12-04T09:18:08.511Z,25.42
2023-12-04T09:19:09.455Z,25.40
2023-12-04T09:20:08.472Z,25.44
2023-12-04T09:21:08.417Z,25.42
2023-12-04T09:22:13.020Z,25.42
2023-12-04T09:23:09.513Z,25.42
2023-12-04T09:24:08.391Z,25.42
2023-12-04T09:25:08.322Z,25.40
2023-12-04T09:26:08.296Z,25.42
2023-12-04T09:27:08.372Z,25.40
2023-12-04T09:28:08.278Z,25.40
2023-12-04T09:29:08.310Z,25.43
2023-12-04T09:30:08.315Z,25.43
2023-12-04T09:31:08.271Z,25.42
2023-12-04T09:32:08.267Z,25.44
2023-12-04T09:33:08.324Z,25.40
2023-12-04T09:34:08.231Z,25.43
2023-12-04T09:35:08.218Z,25.43
2023-12-04T09:36:08.251Z,25.42
2023-12-04T09:37:11.292Z,25.44
2023-12-04T09:38:08.192Z,25.44
2023-12-04T09:39:08.279Z,25.44
2023-12-04T09:40:08.266Z,25.43
2023-12-04T09:41:08.171Z,25.42
2023-12-04T09:42:08.478Z,25.44
2023-12-04T09:43:08.146Z,25.43
2023-12-04T09:44:08.150Z,25.44
2023-12-04T09:45:08.160Z,25.44
2023-12-04T09:46:08.116Z,25.42
2023-12-04T09:47:08.166Z,25.39
2023-12-04T09:48:08.303Z,25.39
2023-12-04T09:49:08.593Z,25.34
2023-12-04T09:50:08.241Z,25.28
2023-12-04T09:51:08.154Z,25.32
2023-12-04T09:52:08.058Z,25.30
2023-12-04T09:53:08.053Z,25.40
2023-12-04T09:54:08.425Z,25.46
2023-12-04T09:55:08.056Z,25.50
2023-12-04T09:56:08.904Z,25.59
2023-12-04T09:57:08.065Z,25.63
2023-12-04T09:58:08.046Z,25.66
2023-12-04T09:59:08.036Z,25.71
2023-12-04T10:00:08.117Z,25.74
2023-12-04T10:01:08.063Z,25.84
2023-12-04T10:02:08.149Z,25.87
2023-12-04T10:03:08.039Z,25.95
2023-12-04T10:04:07.989Z,26.01
2023-12-04T10:05:08.073Z,26.04
2023-12-04T10:06:08.445Z,26.11
2023-12-04T10:07:07.941Z,26.15
2023-12-04T10:08:07.948Z,26.19
2023-12-04T10:09:07.986Z,26.25
2023-12-04T10:10:07.943Z,26.28
2023-12-04T10:11:07.931Z,26.32
2023-12-04T10:12:07.951Z,26.36
2023-12-04T10:13:07.990Z,26.40
2023-12-04T10:14:07.883Z,26.40
2023-12-04T10:15:07.910Z,26.46
2023-12-04T10:16:08.059Z,26.50
2023-12-04T10:17:07.900Z,26.52
2023-12-04T10:18:07.998Z,26.56
2023-12-04T10:19:07.946Z,26.60
2023-12-04T10:20:07.810Z,26.57
2023-12-04T10:21:08.576Z,26.63
2023-12-04T10:22:07.793Z,26.66
2023-12-04T10:23:07.784Z,26.69
2023-12-04T10:24:07.790Z,26.71
2023-12-04T10:25:07.766Z,26.74
2023-12-04T10:26:07.910Z,26.79
2023-12-04T10:27:07.757Z,26.79
2023-12-04T10:28:07.740Z,26.83
2023-12-04T10:29:07.723Z,26.81
2023-12-04T10:30:07.742Z,26.77
2023-12-04T10:31:23.501Z,26.01
2023-12-04T10:32:11.193Z,25.61
2023-12-04T10:33:07.838Z,25.40
2023-12-04T10:34:08.023Z,25.34
2023-12-04T10:35:07.666Z,25.21
2023-12-04T10:36:07.681Z,25.19
2023-12-04T10:37:07.917Z,25.25
2023-12-04T10:38:10.875Z,25.28
2023-12-04T10:39:07.680Z,25.33
2023-12-04T10:40:07.633Z,25.43
2023-12-04T10:41:15.049Z,25.47
2023-12-04T10:42:07.968Z,25.53
2023-12-04T10:43:07.603Z,25.61
2023-12-04T10:45:06.635Z,25.74
2023-12-04T10:46:07.582Z,25.80
2023-12-04T10:47:08.422Z,25.85
2023-12-04T10:48:07.709Z,25.91
2023-12-04T10:49:07.607Z,25.94
2023-12-04T10:50:07.568Z,25.98
2023-12-04T10:51:07.932Z,26.05
2023-12-04T10:52:07.524Z,26.09
2023-12-04T10:53:07.513Z,26.14
2023-12-04T10:54:07.634Z,26.15
2023-12-04T10:55:07.782Z,26.21
2023-12-04T10:56:07.922Z,26.21
2023-12-04T10:57:07.490Z,26.25
2023-12-04T10:58:07.468Z,26.29
2023-12-04T10:59:07.458Z,26.31
2023-12-04T11:00:07.725Z,26.28
2023-12-04T11:01:08.000Z,26.35
2023-12-04T11:02:07.508Z,26.36
2023-12-04T11:03:08.038Z,26.40
2023-12-04T11:04:07.585Z,26.44
2023-12-04T11:05:07.500Z,26.46
2023-12-04T11:06:07.497Z,26.47
2023-12-04T11:07:07.461Z,26.49
2023-12-04T11:08:15.488Z,26.52
2023-12-04T11:09:07.474Z,26.52
2023-12-04T11:10:07.479Z,26.54
2023-12-04T11:11:10.735Z,26.56
2023-12-04T11:12:08.068Z,26.56
2023-12-04T11:13:09.811Z,26.59
2023-12-04T11:14:07.464Z,26.59
2023-12-04T11:15:07.484Z,26.62
2023-12-04T11:16:07.481Z,26.62
2023-12-04T11:17:07.343Z,26.66
2023-12-04T11:18:07.515Z,26.64
2023-12-04T11:19:08.358Z,26.64
2023-12-04T11:20:07.301Z,26.66
2023-12-04T11:21:07.351Z,26.67
2023-12-04T11:22:07.281Z,26.70
2023-12-04T11:23:07.481Z,26.71
2023-12-04T11:24:07.331Z,26.70
2023-12-04T11:25:07.435Z,26.73
2023-12-04T11:26:08.548Z,26.76
2023-12-04T11:27:07.522Z,26.73
2023-12-04T11:28:07.465Z,26.74
2023-12-04T11:29:07.218Z,26.60
2023-12-04T11:30:07.569Z,26.54
2023-12-04T11:31:07.205Z,26.56
2023-12-04T11:32:07.199Z,26.54
2023-12-04T11:33:07.591Z,26.52
2023-12-04T11:34:07.505Z,26.43
2023-12-04T11:35:07.448Z,26.32
2023-12-04T11:36:08.691Z,26.29
2023-12-04T11:37:07.113Z,26.22
2023-12-04T11:38:07.157Z,26.12
2023-12-04T11:39:07.169Z,26.08
2023-12-04T11:40:07.446Z,25.98
2023-12-04T11:41:07.470Z,25.92
2023-12-04T11:42:10.342Z,25.81
2023-12-04T11:43:07.098Z,25.80
2023-12-04T11:44:07.462Z,25.74
2023-12-04T11:45:07.107Z,25.71
2023-12-04T11:46:07.065Z,25.71
2023-12-04T11:47:07.295Z,25.66
2023-12-04T11:48:07.154Z,25.66
2023-12-04T11:49:07.562Z,25.66
2023-12-04T11:50:07.031Z,25.59
2023-12-04T11:51:07.044Z,25.64
2023-12-04T11:52:07.037Z,25.66
2023-12-04T11:53:07.965Z,25.70
2023-12-04T11:54:07.501Z,25.73
2023-12-04T11:55:07.992Z,25.74
2023-12-04T11:56:07.023Z,25.78
2023-12-04T11:57:06.993Z,25.77
2023-12-04T11:58:06.963Z,25.81
2023-12-04T11:59:07.390Z,25.81
2023-12-04T12:00:06.964Z,25.76
2023-12-04T12:01:06.981Z,25.77
2023-12-04T12:02:08.046Z,25.76
2023-12-04T12:03:17.475Z,25.70
2023-12-04T12:04:09.276Z,25.70
2023-12-04T12:05:07.090Z,25.73
2023-12-04T12:06:08.188Z,25.68
2023-12-04T12:07:07.078Z,25.68
2023-12-04T12:08:06.968Z,25.68
2023-12-04T12:09:06.939Z,25.68
2023-12-04T12:10:06.990Z,25.68
2023-12-04T12:11:06.912Z,25.60
2023-12-04T12:12:06.951Z,25.61
2023-12-04T12:13:06.882Z,25.64
2023-12-04T12:14:06.911Z,25.49
2023-12-04T12:15:07.021Z,25.44
2023-12-04T12:16:06.876Z,25.46
2023-12-04T12:17:06.862Z,25.39
2023-12-04T12:18:07.016Z,25.34
2023-12-04T12:19:06.915Z,25.37
2023-12-04T12:20:06.992Z,25.47
2023-12-04T12:21:06.853Z,25.51
2023-12-04T12:22:06.806Z,25.61
2023-12-04T12:23:06.793Z,25.67
2023-12-04T12:24:07.085Z,25.71
2023-12-04T12:25:06.988Z,25.78
2023-12-04T12:26:06.765Z,25.84
2023-12-04T12:27:08.070Z,25.85
2023-12-04T12:28:07.729Z,25.85
2023-12-04T12:29:06.757Z,25.91
2023-12-04T12:30:06.767Z,25.99
2023-12-04T12:31:06.734Z,26.05
2023-12-04T12:32:06.719Z,26.14
2023-12-04T12:33:06.791Z,26.21
2023-12-04T12:34:06.814Z,26.26
2023-12-04T12:35:06.724Z,26.31
2023-12-04T12:36:07.023Z,26.35
2023-12-04T12:37:06.679Z,26.42
2023-12-04T12:38:06.657Z,26.42
2023-12-04T12:39:06.722Z,26.47
2023-12-04T12:40:06.690Z,26.50
2023-12-04T12:41:06.630Z,26.54
2023-12-04T12:42:06.675Z,26.54
2023-12-04T12:43:08.480Z,26.59
2023-12-04T12:44:06.584Z,26.60
2023-12-04T12:45:06.590Z,26.60
2023-12-04T12:46:07.039Z,26.63
2023-12-04T12:47:06.554Z,26.67
2023-12-04T12:48:06.742Z,26.67
2023-12-04T12:49:06.713Z,26.69
2023-12-04T12:50:06.665Z,26.63
2023-12-04T12:51:07.072Z,26.57
2023-12-04T12:52:06.598Z,25.97
2023-12-04T12:53:06.577Z,24.30
2023-12-04T12:54:06.636Z,23.26
2023-12-04T12:55:07.058Z,22.47
2023-12-04T12:56:07.020Z,22.28
2023-12-04T12:57:06.653Z,22.17
2023-12-04T12:58:06.582Z,22.18
2023-12-04T12:59:06.593Z,22.24
2023-12-04T13:00:07.102Z,22.38
2023-12-04T13:01:06.771Z,22.52
2023-12-04T13:02:07.122Z,22.65
2023-12-04T13:03:08.180Z,22.85
2023-12-04T13:04:06.761Z,23.02
2023-12-04T13:05:06.889Z,23.17
2023-12-04T13:06:05.718Z,23.37
2023-12-04T13:07:07.583Z,23.53
2023-12-04T13:08:06.670Z,23.69
2023-12-04T13:09:06.583Z,23.85
2023-12-04T13:10:06.719Z,24.01
2023-12-04T13:11:06.978Z,23.95
2023-12-04T13:12:06.614Z,23.86
2023-12-04T13:13:06.654Z,23.60
2023-12-04T13:14:07.035Z,23.37
2023-12-04T13:15:06.557Z,23.16
2023-12-04T13:16:06.581Z,23.17
2023-12-04T13:17:06.519Z,23.17
2023-12-04T13:18:06.537Z,23.19
2023-12-04T13:19:06.526Z,23.21
2023-12-04T13:20:06.539Z,23.23
2023-12-04T13:21:06.506Z,23.28
2023-12-04T13:22:06.650Z,23.26
2023-12-04T13:23:06.478Z,23.27
2023-12-04T13:24:06.455Z,23.34
2023-12-04T13:25:06.493Z,23.36
2023-12-04T13:26:06.434Z,23.40
2023-12-04T13:27:06.537Z,23.48
2023-12-04T13:28:06.463Z,23.48
2023-12-04T13:29:06.423Z,23.53
2023-12-04T13:30:06.411Z,23.58
2023-12-04T13:31:06.450Z,23.62
2023-12-04T13:32:06.389Z,23.68
2023-12-04T13:33:06.831Z,23.74
2023-12-04T13:34:07.022Z,23.75
2023-12-04T13:35:06.388Z,23.78
2023-12-04T13:36:06.700Z,23.84
2023-12-04T13:37:06.572Z,23.86
2023-12-04T13:38:06.539Z,23.92
2023-12-04T13:39:06.989Z,23.96
2023-12-04T13:40:06.505Z,24.02
2023-12-04T13:41:06.483Z,24.05
2023-12-04T13:42:06.275Z,24.09
2023-12-04T13:43:06.557Z,24.12
2023-12-04T13:44:06.578Z,24.12
2023-12-04T13:45:06.550Z,24.13
2023-12-04T13:46:07.134Z,24.19
2023-12-04T13:47:06.994Z,24.20